sensor_id;sensor_type;location;lat;lon;timestamp;pressure;altitude;pressure_sealevel;temperature;humidity
21300;BME280;10809;49.476;11.016;2023-04-21T00:00:22;97955.97;;;9.55;56.95
21300;BME280;10809;49.476;11.016;2023-04-21T00:02:52;97955.06;;;9.56;56.92
21300;BME280;10809;49.476;11.016;2023-04-21T00:05:23;97950.78;;;9.53;57.42
21300;BME280;10809;49.476;11.016;2023-04-21T00:07:53;97957.88;;;9.53;57.02
21300;BME280;10809;49.476;11.016;2023-04-21T00:10:24;97953.59;;;9.50;57.12
21300;BME280;10809;49.476;11.016;2023-04-21T00:12:54;97950.13;;;9.50;57.24
21300;BME280;10809;49.476;11.016;2023-04-21T00:15:25;97934.34;;;9.48;57.13
21300;BME280;10809;49.476;11.016;2023-04-21T00:17:55;97935.28;;;9.47;57.07
21300;BME280;10809;49.476;11.016;2023-04-21T00:20:27;97937.25;;;9.44;57.23
21300;BME280;10809;49.476;11.016;2023-04-21T00:23:00;97940.06;;;9.41;57.11
21300;BME280;10809;49.476;11.016;2023-04-21T00:25:31;97933.25;;;9.37;56.88
21300;BME280;10809;49.476;11.016;2023-04-21T00:28:01;97930.00;;;9.32;57.29
21300;BME280;10809;49.476;11.016;2023-04-21T00:30:32;97924.97;;;9.27;57.26
21300;BME280;10809;49.476;11.016;2023-04-21T00:33:03;97926.19;;;9.22;57.31
21300;BME280;10809;49.476;11.016;2023-04-21T00:35:33;97912.38;;;9.17;57.13
21300;BME280;10809;49.476;11.016;2023-04-21T00:38:07;97917.00;;;9.13;56.99
21300;BME280;10809;49.476;11.016;2023-04-21T00:40:39;97909.34;;;9.09;57.59
21300;BME280;10809;49.476;11.016;2023-04-21T00:43:10;97910.41;;;9.05;57.31
21300;BME280;10809;49.476;11.016;2023-04-21T00:45:40;97914.09;;;9.02;57.33
21300;BME280;10809;49.476;11.016;2023-04-21T00:48:14;97905.56;;;8.97;57.59
21300;BME280;10809;49.476;11.016;2023-04-21T00:50:44;97911.03;;;8.94;57.51
21300;BME280;10809;49.476;11.016;2023-04-21T00:53:19;97917.34;;;8.92;57.37
21300;BME280;10809;49.476;11.016;2023-04-21T00:55:50;97912.31;;;8.87;57.68
21300;BME280;10809;49.476;11.016;2023-04-21T00:58:20;97915.03;;;8.86;57.73
21300;BME280;10809;49.476;11.016;2023-04-21T01:00:51;97907.28;;;8.83;57.54
21300;BME280;10809;49.476;11.016;2023-04-21T01:03:22;97911.78;;;8.81;57.72
21300;BME280;10809;49.476;11.016;2023-04-21T01:05:52;97906.69;;;8.78;57.78
21300;BME280;10809;49.476;11.016;2023-04-21T01:08:25;97916.44;;;8.76;58.13
21300;BME280;10809;49.476;11.016;2023-04-21T01:10:56;97913.91;;;8.74;57.74
21300;BME280;10809;49.476;11.016;2023-04-21T01:13:26;97910.50;;;8.72;57.78
21300;BME280;10809;49.476;11.016;2023-04-21T01:15:57;97914.16;;;8.70;58.04
21300;BME280;10809;49.476;11.016;2023-04-21T01:18:27;97916.94;;;8.67;58.09
21300;BME280;10809;49.476;11.016;2023-04-21T01:21:07;97919.75;;;8.64;57.86
21300;BME280;10809;49.476;11.016;2023-04-21T01:23:39;97926.84;;;8.63;58.13
21300;BME280;10809;49.476;11.016;2023-04-21T01:26:10;97930.44;;;8.61;57.96
21300;BME280;10809;49.476;11.016;2023-04-21T01:28:55;97929.78;;;8.57;58.06
21300;BME280;10809;49.476;11.016;2023-04-21T01:31:32;97929.88;;;8.56;58.08
21300;BME280;10809;49.476;11.016;2023-04-21T01:34:05;97935.22;;;8.54;58.30
21300;BME280;10809;49.476;11.016;2023-04-21T01:36:36;97937.00;;;8.54;58.47
21300;BME280;10809;49.476;11.016;2023-04-21T01:39:06;97932.66;;;8.53;58.52
21300;BME280;10809;49.476;11.016;2023-04-21T01:41:49;97945.00;;;8.52;58.57
21300;BME280;10809;49.476;11.016;2023-04-21T01:44:20;97932.75;;;8.51;58.86
21300;BME280;10809;49.476;11.016;2023-04-21T01:46:51;97944.13;;;8.52;58.68
21300;BME280;10809;49.476;11.016;2023-04-21T01:49:21;97940.66;;;8.51;58.86
21300;BME280;10809;49.476;11.016;2023-04-21T01:51:52;97938.94;;;8.50;58.67
21300;BME280;10809;49.476;11.016;2023-04-21T01:54:29;97936.28;;;8.50;58.42
21300;BME280;10809;49.476;11.016;2023-04-21T01:57:12;97938.09;;;8.50;58.52
21300;BME280;10809;49.476;11.016;2023-04-21T01:59:52;97940.81;;;8.48;58.90
21300;BME280;10809;49.476;11.016;2023-04-21T02:02:23;97934.69;;;8.48;58.53
21300;BME280;10809;49.476;11.016;2023-04-21T02:05:07;97945.31;;;8.46;58.56
21300;BME280;10809;49.476;11.016;2023-04-21T02:07:40;97942.75;;;8.45;58.82
21300;BME280;10809;49.476;11.016;2023-04-21T02:10:11;97940.22;;;8.43;59.05
21300;BME280;10809;49.476;11.016;2023-04-21T02:12:51;97935.97;;;8.41;59.04
21300;BME280;10809;49.476;11.016;2023-04-21T02:15:21;97925.56;;;8.38;58.84
21300;BME280;10809;49.476;11.016;2023-04-21T02:17:52;97940.63;;;8.36;58.94
21300;BME280;10809;49.476;11.016;2023-04-21T02:20:22;97928.44;;;8.33;59.11
21300;BME280;10809;49.476;11.016;2023-04-21T02:22:53;97935.59;;;8.31;59.00
21300;BME280;10809;49.476;11.016;2023-04-21T02:25:24;97937.44;;;8.29;58.78
21300;BME280;10809;49.476;11.016;2023-04-21T02:27:54;97934.97;;;8.26;58.87
21300;BME280;10809;49.476;11.016;2023-04-21T02:30:25;97938.63;;;8.24;58.82
21300;BME280;10809;49.476;11.016;2023-04-21T02:32:56;97932.63;;;8.20;58.87
21300;BME280;10809;49.476;11.016;2023-04-21T02:35:38;97923.19;;;8.16;58.88
21300;BME280;10809;49.476;11.016;2023-04-21T02:38:09;97925.91;;;8.15;59.07
21300;BME280;10809;49.476;11.016;2023-04-21T02:40:40;97932.19;;;8.12;58.98
21300;BME280;10809;49.476;11.016;2023-04-21T02:43:17;97921.88;;;8.08;58.80
21300;BME280;10809;49.476;11.016;2023-04-21T02:45:57;97924.66;;;8.05;58.65
21300;BME280;10809;49.476;11.016;2023-04-21T02:48:31;97922.97;;;8.04;58.78
21300;BME280;10809;49.476;11.016;2023-04-21T02:51:01;97919.63;;;8.00;58.89
21300;BME280;10809;49.476;11.016;2023-04-21T02:53:33;97918.88;;;7.98;59.03
21300;BME280;10809;49.476;11.016;2023-04-21T02:56:07;97912.03;;;7.94;58.97
21300;BME280;10809;49.476;11.016;2023-04-21T02:58:38;97918.25;;;7.93;59.15
21300;BME280;10809;49.476;11.016;2023-04-21T03:01:09;97921.91;;;7.91;59.50
21300;BME280;10809;49.476;11.016;2023-04-21T03:03:40;97917.53;;;7.90;59.25
21300;BME280;10809;49.476;11.016;2023-04-21T03:06:13;97916.78;;;7.88;59.26
21300;BME280;10809;49.476;11.016;2023-04-21T03:08:43;97920.34;;;7.87;59.39
21300;BME280;10809;49.476;11.016;2023-04-21T03:11:15;97932.69;;;7.86;59.41
21300;BME280;10809;49.476;11.016;2023-04-21T03:13:45;97924.84;;;7.85;59.49
21300;BME280;10809;49.476;11.016;2023-04-21T03:16:15;97922.31;;;7.83;59.49
21300;BME280;10809;49.476;11.016;2023-04-21T03:18:53;97926.78;;;7.81;59.19
21300;BME280;10809;49.476;11.016;2023-04-21T03:21:27;97920.72;;;7.79;59.32
21300;BME280;10809;49.476;11.016;2023-04-21T03:24:07;97925.16;;;7.78;59.00
21300;BME280;10809;49.476;11.016;2023-04-21T03:26:38;97932.28;;;7.76;59.46
21300;BME280;10809;49.476;11.016;2023-04-21T03:29:14;97925.38;;;7.74;59.66
21300;BME280;10809;49.476;11.016;2023-04-21T03:31:45;97925.44;;;7.72;59.42
21300;BME280;10809;49.476;11.016;2023-04-21T03:34:18;97925.59;;;7.69;59.46
21300;BME280;10809;49.476;11.016;2023-04-21T03:36:49;97929.19;;;7.68;59.46
21300;BME280;10809;49.476;11.016;2023-04-21T03:39:20;97925.75;;;7.66;59.27
21300;BME280;10809;49.476;11.016;2023-04-21T03:41:50;97929.31;;;7.65;59.58
21300;BME280;10809;49.476;11.016;2023-04-21T03:44:24;97926.78;;;7.64;59.58
21300;BME280;10809;49.476;11.016;2023-04-21T03:46:54;97925.91;;;7.63;59.88
21300;BME280;10809;49.476;11.016;2023-04-21T03:49:27;97936.53;;;7.62;59.67
21300;BME280;10809;49.476;11.016;2023-04-21T03:51:57;97928.69;;;7.60;59.44
21300;BME280;10809;49.476;11.016;2023-04-21T03:54:34;97936.75;;;7.57;59.52
21300;BME280;10809;49.476;11.016;2023-04-21T03:57:05;97938.63;;;7.55;59.55
21300;BME280;10809;49.476;11.016;2023-04-21T03:59:35;97936.97;;;7.53;59.77
21300;BME280;10809;49.476;11.016;2023-04-21T04:02:05;97932.66;;;7.52;59.86
21300;BME280;10809;49.476;11.016;2023-04-21T04:04:40;97935.34;;;7.50;59.54
21300;BME280;10809;49.476;11.016;2023-04-21T04:07:11;97937.19;;;7.48;59.72
21300;BME280;10809;49.476;11.016;2023-04-21T04:09:41;97932.09;;;7.45;59.92
21300;BME280;10809;49.476;11.016;2023-04-21T04:12:12;97932.16;;;7.44;59.72
21300;BME280;10809;49.476;11.016;2023-04-21T04:14:49;97938.44;;;7.41;59.59
21300;BME280;10809;49.476;11.016;2023-04-21T04:17:23;97934.28;;;7.37;59.75
21300;BME280;10809;49.476;11.016;2023-04-21T04:19:53;97932.63;;;7.35;59.57
21300;BME280;10809;49.476;11.016;2023-04-21T04:22:27;97933.63;;;7.32;59.61
21300;BME280;10809;49.476;11.016;2023-04-21T04:24:57;97933.78;;;7.29;59.50
21300;BME280;10809;49.476;11.016;2023-04-21T04:27:28;97935.63;;;7.27;59.72
21300;BME280;10809;49.476;11.016;2023-04-21T04:30:08;97934.06;;;7.23;59.83
21300;BME280;10809;49.476;11.016;2023-04-21T04:32:39;97935.91;;;7.21;59.77
21300;BME280;10809;49.476;11.016;2023-04-21T04:35:10;97940.41;;;7.19;59.75
21300;BME280;10809;49.476;11.016;2023-04-21T04:37:42;97938.69;;;7.18;60.06
21300;BME280;10809;49.476;11.016;2023-04-21T04:40:12;97943.16;;;7.16;59.96
21300;BME280;10809;49.476;11.016;2023-04-21T04:42:43;97939.78;;;7.14;60.09
21300;BME280;10809;49.476;11.016;2023-04-21T04:45:16;97935.41;;;7.13;59.77
21300;BME280;10809;49.476;11.016;2023-04-21T04:47:48;97938.13;;;7.12;60.18
21300;BME280;10809;49.476;11.016;2023-04-21T04:50:30;97937.38;;;7.10;59.79
21300;BME280;10809;49.476;11.016;2023-04-21T04:53:01;97936.50;;;7.09;60.19
21300;BME280;10809;49.476;11.016;2023-04-21T04:55:31;97945.41;;;7.07;60.26
21300;BME280;10809;49.476;11.016;2023-04-21T04:58:08;97940.19;;;7.05;60.00
21300;BME280;10809;49.476;11.016;2023-04-21T05:00:38;97935.00;;;7.04;60.23
21300;BME280;10809;49.476;11.016;2023-04-21T05:03:09;97935.00;;;7.04;60.04
21300;BME280;10809;49.476;11.016;2023-04-21T05:05:40;97938.59;;;7.01;60.27
21300;BME280;10809;49.476;11.016;2023-04-21T05:08:10;97941.25;;;7.01;60.33
21300;BME280;10809;49.476;11.016;2023-04-21T05:10:41;97943.03;;;7.01;60.51
21300;BME280;10809;49.476;11.016;2023-04-21T05:13:11;97940.47;;;6.99;60.33
21300;BME280;10809;49.476;11.016;2023-04-21T05:15:41;97944.88;;;6.99;60.25
21300;BME280;10809;49.476;11.016;2023-04-21T05:18:12;97953.72;;;6.98;60.37
21300;BME280;10809;49.476;11.016;2023-04-21T05:20:42;97949.28;;;6.98;60.59
21300;BME280;10809;49.476;11.016;2023-04-21T05:23:13;97943.19;;;6.98;60.69
21300;BME280;10809;49.476;11.016;2023-04-21T05:25:46;97944.88;;;6.99;60.89
21300;BME280;10809;49.476;11.016;2023-04-21T05:28:20;97950.94;;;7.01;60.92
21300;BME280;10809;49.476;11.016;2023-04-21T05:30:50;97954.25;;;7.04;61.10
21300;BME280;10809;49.476;11.016;2023-04-21T05:33:21;97954.94;;;7.09;61.56
21300;BME280;10809;49.476;11.016;2023-04-21T05:35:51;97948.50;;;7.15;61.51
21300;BME280;10809;49.476;11.016;2023-04-21T05:38:22;97953.41;;;7.22;61.72
21300;BME280;10809;49.476;11.016;2023-04-21T05:40:53;97957.47;;;7.29;61.71
21300;BME280;10809;49.476;11.016;2023-04-21T05:43:24;97952.78;;;7.36;61.98
21300;BME280;10809;49.476;11.016;2023-04-21T05:45:55;97949.78;;;7.43;62.03
21300;BME280;10809;49.476;11.016;2023-04-21T05:48:28;97951.94;;;7.52;61.72
21300;BME280;10809;49.476;11.016;2023-04-21T05:51:13;97955.03;;;7.60;61.85
21300;BME280;10809;49.476;11.016;2023-04-21T05:53:45;97954.66;;;7.68;61.83
21300;BME280;10809;49.476;11.016;2023-04-21T05:56:15;97951.63;;;7.75;61.91
21300;BME280;10809;49.476;11.016;2023-04-21T05:58:46;97948.66;;;7.83;62.05
21300;BME280;10809;49.476;11.016;2023-04-21T06:01:16;97955.31;;;7.90;62.11
21300;BME280;10809;49.476;11.016;2023-04-21T06:03:46;97955.78;;;7.98;62.27
21300;BME280;10809;49.476;11.016;2023-04-21T06:06:20;97952.69;;;8.07;62.36
21300;BME280;10809;49.476;11.016;2023-04-21T06:08:50;97958.38;;;8.15;62.59
21300;BME280;10809;49.476;11.016;2023-04-21T06:11:21;97957.91;;;8.24;62.85
21300;BME280;10809;49.476;11.016;2023-04-21T06:13:54;97960.03;;;8.35;62.63
21300;BME280;10809;49.476;11.016;2023-04-21T06:16:28;97962.94;;;8.46;62.84
21300;BME280;10809;49.476;11.016;2023-04-21T06:19:03;97958.03;;;8.55;62.48
21300;BME280;10809;49.476;11.016;2023-04-21T06:21:33;97959.19;;;8.67;62.41
21300;BME280;10809;49.476;11.016;2023-04-21T06:24:04;97950.75;;;8.76;62.63
21300;BME280;10809;49.476;11.016;2023-04-21T06:26:37;97946.72;;;8.86;62.29
21300;BME280;10809;49.476;11.016;2023-04-21T06:29:08;97947.91;;;8.96;62.90
21300;BME280;10809;49.476;11.016;2023-04-21T06:31:38;97952.59;;;9.06;62.60
21300;BME280;10809;49.476;11.016;2023-04-21T06:34:09;97954.72;;;9.15;62.26
21300;BME280;10809;49.476;11.016;2023-04-21T06:36:39;97949.00;;;9.23;62.11
21300;BME280;10809;49.476;11.016;2023-04-21T06:39:10;97945.09;;;9.30;61.80
21300;BME280;10809;49.476;11.016;2023-04-21T06:41:40;97939.47;;;9.36;62.17
21300;BME280;10809;49.476;11.016;2023-04-21T06:44:11;97940.00;;;9.42;61.72
21300;BME280;10809;49.476;11.016;2023-04-21T06:46:46;97947.66;;;9.47;61.79
21300;BME280;10809;49.476;11.016;2023-04-21T06:49:16;97935.88;;;9.52;61.91
21300;BME280;10809;49.476;11.016;2023-04-21T06:51:47;97937.03;;;9.63;62.10
21300;BME280;10809;49.476;11.016;2023-04-21T06:54:20;97944.75;;;9.81;63.66
21300;BME280;10809;49.476;11.016;2023-04-21T06:56:51;97939.22;;;10.15;65.83
21300;BME280;10809;49.476;11.016;2023-04-21T06:59:21;97932.53;;;10.66;66.70
21300;BME280;10809;49.476;11.016;2023-04-21T07:01:52;97929.56;;;11.26;67.42
21300;BME280;10809;49.476;11.016;2023-04-21T07:04:22;97931.94;;;11.97;67.86
21300;BME280;10809;49.476;11.016;2023-04-21T07:06:53;97923.53;;;12.67;67.15
21300;BME280;10809;49.476;11.016;2023-04-21T07:09:23;97928.53;;;13.33;65.61
21300;BME280;10809;49.476;11.016;2023-04-21T07:11:54;97927.03;;;13.88;62.97
21300;BME280;10809;49.476;11.016;2023-04-21T07:14:27;97928.38;;;14.28;61.03
21300;BME280;10809;49.476;11.016;2023-04-21T07:16:58;97914.66;;;14.56;60.37
21300;BME280;10809;49.476;11.016;2023-04-21T07:19:28;97923.38;;;14.81;59.81
21300;BME280;10809;49.476;11.016;2023-04-21T07:21:59;97920.50;;;15.06;59.19
21300;BME280;10809;49.476;11.016;2023-04-21T07:24:30;97928.81;;;15.34;58.56
21300;BME280;10809;49.476;11.016;2023-04-21T07:27:01;97917.91;;;15.59;58.33
21300;BME280;10809;49.476;11.016;2023-04-21T07:29:31;97927.97;;;15.87;58.04
21300;BME280;10809;49.476;11.016;2023-04-21T07:32:02;97917.91;;;16.11;56.86
21300;BME280;10809;49.476;11.016;2023-04-21T07:34:32;97916.00;;;16.34;56.19
21300;BME280;10809;49.476;11.016;2023-04-21T07:37:03;97910.78;;;16.53;56.46
21300;BME280;10809;49.476;11.016;2023-04-21T07:39:33;97914.00;;;16.77;56.75
21300;BME280;10809;49.476;11.016;2023-04-21T07:42:04;97915.00;;;17.06;56.55
21300;BME280;10809;49.476;11.016;2023-04-21T07:44:37;97914.00;;;17.37;56.27
21300;BME280;10809;49.476;11.016;2023-04-21T07:47:07;97906.59;;;17.69;55.69
21300;BME280;10809;49.476;11.016;2023-04-21T07:49:38;97909.19;;;17.99;54.29
21300;BME280;10809;49.476;11.016;2023-04-21T07:52:08;97902.41;;;18.24;53.38
21300;BME280;10809;49.476;11.016;2023-04-21T07:54:39;97899.44;;;18.46;52.94
21300;BME280;10809;49.476;11.016;2023-04-21T07:57:09;97893.19;;;18.65;51.69
21300;BME280;10809;49.476;11.016;2023-04-21T07:59:40;97899.38;;;18.75;51.12
21300;BME280;10809;49.476;11.016;2023-04-21T08:02:11;97905.53;;;18.85;50.58
21300;BME280;10809;49.476;11.016;2023-04-21T08:04:41;97901.84;;;18.95;50.84
21300;BME280;10809;49.476;11.016;2023-04-21T08:07:12;97896.13;;;19.08;50.69
21300;BME280;10809;49.476;11.016;2023-04-21T08:09:43;97887.59;;;19.22;50.37
21300;BME280;10809;49.476;11.016;2023-04-21T08:12:17;97894.16;;;19.37;50.84
21300;BME280;10809;49.476;11.016;2023-04-21T08:14:47;97892.69;;;19.52;50.52
21300;BME280;10809;49.476;11.016;2023-04-21T08:17:18;97886.81;;;19.66;49.56
21300;BME280;10809;49.476;11.016;2023-04-21T08:19:48;97875.31;;;19.73;48.39
21300;BME280;10809;49.476;11.016;2023-04-21T08:22:19;97869.16;;;19.81;48.57
21300;BME280;10809;49.476;11.016;2023-04-21T08:24:49;97880.97;;;19.88;47.31
21300;BME280;10809;49.476;11.016;2023-04-21T08:27:20;97875.13;;;19.93;47.64
21300;BME280;10809;49.476;11.016;2023-04-21T08:29:50;97879.22;;;19.97;46.96
21300;BME280;10809;49.476;11.016;2023-04-21T08:32:21;97875.38;;;19.99;47.10
21300;BME280;10809;49.476;11.016;2023-04-21T08:34:53;97874.38;;;20.00;46.09
21300;BME280;10809;49.476;11.016;2023-04-21T08:37:24;97873.84;;;19.97;45.78
21300;BME280;10809;49.476;11.016;2023-04-21T08:39:54;97874.00;;;19.95;46.41
21300;BME280;10809;49.476;11.016;2023-04-21T08:42:32;97873.69;;;19.98;47.24
21300;BME280;10809;49.476;11.016;2023-04-21T08:45:04;97866.28;;;20.00;45.26
21300;BME280;10809;49.476;11.016;2023-04-21T08:47:37;97877.75;;;20.02;45.34
21300;BME280;10809;49.476;11.016;2023-04-21T08:50:12;97875.91;;;20.03;45.97
21300;BME280;10809;49.476;11.016;2023-04-21T08:52:42;97874.06;;;20.03;44.86
21300;BME280;10809;49.476;11.016;2023-04-21T08:55:14;97872.22;;;20.04;44.63
21300;BME280;10809;49.476;11.016;2023-04-21T08:57:47;97878.59;;;20.03;44.69
21300;BME280;10809;49.476;11.016;2023-04-21T09:00:18;97876.53;;;19.97;43.72
21300;BME280;10809;49.476;11.016;2023-04-21T09:02:59;97881.13;;;19.87;44.45
21300;BME280;10809;49.476;11.016;2023-04-21T09:05:36;97876.97;;;19.74;44.77
21300;BME280;10809;49.476;11.016;2023-04-21T09:08:12;97876.06;;;19.66;44.56
21300;BME280;10809;49.476;11.016;2023-04-21T09:10:49;97882.34;;;19.57;44.83
21300;BME280;10809;49.476;11.016;2023-04-21T09:13:20;97880.53;;;19.48;43.76
21300;BME280;10809;49.476;11.016;2023-04-21T09:15:58;97887.94;;;19.36;43.63
21300;BME280;10809;49.476;11.016;2023-04-21T09:18:30;97877.72;;;19.22;43.10
21300;BME280;10809;49.476;11.016;2023-04-21T09:21:15;97876.66;;;19.06;44.49
21300;BME280;10809;49.476;11.016;2023-04-21T09:23:51;97882.53;;;18.92;43.86
21300;BME280;10809;49.476;11.016;2023-04-21T09:26:22;97878.63;;;18.77;43.22
21300;BME280;10809;49.476;11.016;2023-04-21T09:28:52;97878.63;;;18.58;43.13
21300;BME280;10809;49.476;11.016;2023-04-21T09:31:35;97875.72;;;18.42;44.55
21300;BME280;10809;49.476;11.016;2023-04-21T09:34:17;97877.69;;;18.30;44.44
21300;BME280;10809;49.476;11.016;2023-04-21T09:36:48;97877.75;;;18.21;43.87
21300;BME280;10809;49.476;11.016;2023-04-21T09:39:21;97879.44;;;18.12;44.16
21300;BME280;10809;49.476;11.016;2023-04-21T09:41:52;97871.53;;;18.01;43.56
21300;BME280;10809;49.476;11.016;2023-04-21T09:44:23;97870.53;;;17.92;44.24
21300;BME280;10809;49.476;11.016;2023-04-21T09:47:08;97872.78;;;17.87;45.55
21300;BME280;10809;49.476;11.016;2023-04-21T09:49:43;97873.06;;;17.84;44.74
21300;BME280;10809;49.476;11.016;2023-04-21T09:52:15;97871.94;;;17.77;43.54
21300;BME280;10809;49.476;11.016;2023-04-21T09:54:51;97874.44;;;17.69;44.06
21300;BME280;10809;49.476;11.016;2023-04-21T09:57:30;97869.25;;;17.58;43.42
21300;BME280;10809;49.476;11.016;2023-04-21T10:00:12;97875.69;;;17.46;43.99
21300;BME280;10809;49.476;11.016;2023-04-21T10:02:47;97878.50;;;17.35;43.56
21300;BME280;10809;49.476;11.016;2023-04-21T10:05:18;97868.19;;;17.21;43.62
21300;BME280;10809;49.476;11.016;2023-04-21T10:07:48;97874.31;;;17.12;43.73
21300;BME280;10809;49.476;11.016;2023-04-21T10:10:27;97864.44;;;17.03;44.31
21300;BME280;10809;49.476;11.016;2023-04-21T10:12:58;97860.31;;;16.99;44.04
21300;BME280;10809;49.476;11.016;2023-04-21T10:15:33;97858.63;;;16.98;44.68
21300;BME280;10809;49.476;11.016;2023-04-21T10:18:17;97848.66;;;17.00;44.69
21300;BME280;10809;49.476;11.016;2023-04-21T10:21:00;97850.06;;;17.04;44.55
21300;BME280;10809;49.476;11.016;2023-04-21T10:23:41;97850.53;;;17.09;44.83
21300;BME280;10809;49.476;11.016;2023-04-21T10:28:59;97849.44;;;17.21;44.78
21300;BME280;10809;49.476;11.016;2023-04-21T10:34:38;97833.41;;;17.40;45.00
21300;BME280;10809;49.476;11.016;2023-04-21T10:37:11;97823.59;;;17.50;44.06
21300;BME280;10809;49.476;11.016;2023-04-21T10:39:51;97838.66;;;17.61;43.47
21300;BME280;10809;49.476;11.016;2023-04-21T10:42:25;97836.28;;;17.67;43.41
21300;BME280;10809;49.476;11.016;2023-04-21T10:47:37;97831.06;;;17.85;43.26
21300;BME280;10809;49.476;11.016;2023-04-21T10:50:13;97818.09;;;17.90;43.10
21300;BME280;10809;49.476;11.016;2023-04-21T10:55:27;97813.00;;;18.06;42.90
21300;BME280;10809;49.476;11.016;2023-04-21T10:58:01;97814.00;;;18.15;42.93
21300;BME280;10809;49.476;11.016;2023-04-21T11:00:32;97807.47;;;18.27;42.98
21300;BME280;10809;49.476;11.016;2023-04-21T11:03:04;97801.09;;;18.37;42.60
21300;BME280;10809;49.476;11.016;2023-04-21T11:05:37;97806.25;;;18.48;42.48
21300;BME280;10809;49.476;11.016;2023-04-21T11:08:13;97797.06;;;18.60;42.40
21300;BME280;10809;49.476;11.016;2023-04-21T11:10:45;97798.88;;;18.69;41.92
21300;BME280;10809;49.476;11.016;2023-04-21T11:13:24;97791.78;;;18.78;41.87
21300;BME280;10809;49.476;11.016;2023-04-21T11:16:05;97798.22;;;18.85;42.17
21300;BME280;10809;49.476;11.016;2023-04-21T11:18:45;97797.50;;;18.92;41.44
21300;BME280;10809;49.476;11.016;2023-04-21T11:21:18;97796.06;;;18.98;41.81
21300;BME280;10809;49.476;11.016;2023-04-21T11:23:58;97779.38;;;19.04;41.53
21300;BME280;10809;49.476;11.016;2023-04-21T11:26:34;97780.59;;;19.09;41.16
21300;BME280;10809;49.476;11.016;2023-04-21T11:29:06;97774.75;;;19.14;40.22
21300;BME280;10809;49.476;11.016;2023-04-21T11:31:39;97775.31;;;19.17;40.91
21300;BME280;10809;49.476;11.016;2023-04-21T11:34:10;97762.44;;;19.21;40.84
21300;BME280;10809;49.476;11.016;2023-04-21T11:36:42;97771.72;;;19.26;41.17
21300;BME280;10809;49.476;11.016;2023-04-21T11:39:15;97770.09;;;19.33;40.85
21300;BME280;10809;49.476;11.016;2023-04-21T11:41:49;97769.34;;;19.41;40.79
21300;BME280;10809;49.476;11.016;2023-04-21T11:44:39;97768.56;;;19.48;40.90
21300;BME280;10809;49.476;11.016;2023-04-21T11:47:16;97761.94;;;19.52;40.61
21300;BME280;10809;49.476;11.016;2023-04-21T11:52:25;97754.78;;;19.61;39.94
21300;BME280;10809;49.476;11.016;2023-04-21T11:55:04;97751.63;;;19.65;40.55
21300;BME280;10809;49.476;11.016;2023-04-21T11:57:35;97757.72;;;19.67;39.27
21300;BME280;10809;49.476;11.016;2023-04-21T12:00:08;97744.81;;;19.71;39.73
21300;BME280;10809;49.476;11.016;2023-04-21T12:02:53;97751.56;;;19.75;40.22
21300;BME280;10809;49.476;11.016;2023-04-21T12:05:23;97753.06;;;19.77;39.31
21300;BME280;10809;49.476;11.016;2023-04-21T12:07:54;97745.72;;;19.79;38.91
21300;BME280;10809;49.476;11.016;2023-04-21T12:10:27;97756.31;;;19.81;39.39
21300;BME280;10809;49.476;11.016;2023-04-21T12:12:58;97747.22;;;19.82;39.20
21300;BME280;10809;49.476;11.016;2023-04-21T12:15:29;97749.94;;;19.82;38.67
21300;BME280;10809;49.476;11.016;2023-04-21T12:17:59;97748.94;;;19.83;38.71
21300;BME280;10809;49.476;11.016;2023-04-21T12:20:33;97746.91;;;19.85;39.09
21300;BME280;10809;49.476;11.016;2023-04-21T12:23:06;97747.47;;;19.89;38.59
21300;BME280;10809;49.476;11.016;2023-04-21T12:25:37;97741.78;;;19.92;38.35
21300;BME280;10809;49.476;11.016;2023-04-21T12:28:08;97742.16;;;19.97;38.51
21300;BME280;10809;49.476;11.016;2023-04-21T12:30:41;97737.97;;;20.02;38.91
21300;BME280;10809;49.476;11.016;2023-04-21T12:33:12;97735.34;;;20.10;38.86
21300;BME280;10809;49.476;11.016;2023-04-21T12:35:42;97727.34;;;20.18;38.70
21300;BME280;10809;49.476;11.016;2023-04-21T12:38:13;97728.25;;;20.27;38.26
21300;BME280;10809;49.476;11.016;2023-04-21T12:40:44;97723.09;;;20.33;37.63
21300;BME280;10809;49.476;11.016;2023-04-21T12:43:14;97715.03;;;20.41;37.88
21300;BME280;10809;49.476;11.016;2023-04-21T12:45:45;97724.19;;;20.48;37.52
21300;BME280;10809;49.476;11.016;2023-04-21T12:48:18;97718.16;;;20.54;37.68
21300;BME280;10809;49.476;11.016;2023-04-21T12:50:49;97719.50;;;20.58;37.44
21300;BME280;10809;49.476;11.016;2023-04-21T12:53:20;97714.50;;;20.63;37.45
21300;BME280;10809;49.476;11.016;2023-04-21T12:55:50;97722.06;;;20.68;36.94
21300;BME280;10809;49.476;11.016;2023-04-21T12:58:21;97719.06;;;20.71;36.94
21300;BME280;10809;49.476;11.016;2023-04-21T13:00:51;97719.59;;;20.74;36.50
21300;BME280;10809;49.476;11.016;2023-04-21T13:03:22;97714.03;;;20.76;36.33
21300;BME280;10809;49.476;11.016;2023-04-21T13:05:52;97707.63;;;20.77;36.29
21300;BME280;10809;49.476;11.016;2023-04-21T13:08:22;97712.16;;;20.76;36.40
21300;BME280;10809;49.476;11.016;2023-04-21T13:10:53;97706.78;;;20.76;36.32
21300;BME280;10809;49.476;11.016;2023-04-21T13:13:23;97702.44;;;20.75;36.09
21300;BME280;10809;49.476;11.016;2023-04-21T13:15:54;97705.13;;;20.75;35.99
21300;BME280;10809;49.476;11.016;2023-04-21T13:18:24;97702.75;;;20.72;35.84
21300;BME280;10809;49.476;11.016;2023-04-21T13:20:55;97695.69;;;20.71;36.02
21300;BME280;10809;49.476;11.016;2023-04-21T13:23:25;97710.28;;;20.69;35.86
21300;BME280;10809;49.476;11.016;2023-04-21T13:25:56;97693.50;;;20.67;35.55
21300;BME280;10809;49.476;11.016;2023-04-21T13:28:33;97701.56;;;20.67;36.13
21300;BME280;10809;49.476;11.016;2023-04-21T13:31:03;97694.16;;;20.69;35.52
21300;BME280;10809;49.476;11.016;2023-04-21T13:33:34;97694.50;;;20.74;35.80
21300;BME280;10809;49.476;11.016;2023-04-21T13:36:05;97703.94;;;20.78;35.87